createdAt,value
2023-02-26T09:41:10.283Z,140385.91
2023-02-26T09:46:21.012Z,140428.91
2023-02-26T09:51:28.026Z,140358.97
2023-02-26T09:56:36.868Z,140431.34
2023-02-26T10:01:44.091Z,140485.34
2023-02-26T10:06:54.173Z,140524.59
2023-02-26T10:12:01.770Z,140493.91
2023-02-26T10:17:08.672Z,140522.16
2023-02-26T10:22:17.590Z,140568.84
2023-02-26T10:27:25.553Z,140618.00
2023-02-26T10:32:31.718Z,140595.88
2023-02-26T10:37:40.129Z,140683.09
2023-02-26T10:42:48.149Z,140633.94
2023-02-26T10:47:55.502Z,140627.81
2023-02-26T10:52:59.151Z,140594.63
2023-02-26T10:58:06.881Z,140715.03
2023-02-26T11:03:15.217Z,140777.75
2023-02-26T11:08:21.804Z,140745.75
2023-02-26T11:13:27.813Z,140656.06
2023-02-26T11:18:33.794Z,140588.50
2023-02-26T11:23:39.869Z,140624.13
2023-02-26T11:28:46.046Z,140684.31
2023-02-26T11:33:50.384Z,140753.19
2023-02-26T11:38:54.874Z,140835.50
2023-02-26T11:44:03.189Z,140877.28
2023-02-26T11:49:06.635Z,140745.75
2023-02-26T11:54:21.613Z,140649.94
2023-02-26T11:59:27.510Z,140763.00
2023-02-26T12:04:32.686Z,140829.31
2023-02-26T12:09:36.069Z,140813.34
2023-02-26T12:14:48.545Z,140713.81
2023-02-26T12:20:01.346Z,140724.91
2023-02-26T12:25:16.656Z,140669.59
2023-02-26T12:30:33.170Z,140676.97
2023-02-26T12:35:54.361Z,140680.63
2023-02-26T12:41:15.316Z,140729.81
2023-02-26T12:46:27.233Z,140798.56
2023-02-26T12:51:36.384Z,140738.41
2023-02-26T12:56:55.373Z,140660.97
2023-02-26T13:02:16.741Z,140690.47
2023-02-26T13:07:28.055Z,140731.03
2023-02-26T13:12:35.598Z,140794.91
2023-02-26T13:17:45.046Z,140818.28
2023-02-26T13:22:53.655Z,140718.72
2023-02-26T13:27:58.252Z,140678.19
2023-02-26T13:33:03.296Z,140719.94
2023-02-26T13:38:14.099Z,140747.00
2023-02-26T13:43:24.925Z,140771.59
2023-02-26T13:48:38.306Z,140715.03
2023-02-26T13:53:49.893Z,140731.03
2023-02-26T13:58:55.327Z,140793.66
2023-02-26T14:04:23.400Z,140820.72
2023-02-26T14:09:55.693Z,140775.25
2023-02-26T14:15:17.853Z,140824.41
2023-02-26T14:20:27.567Z,140804.72
2023-02-26T14:25:34.831Z,140681.88
2023-02-26T14:30:44.037Z,140691.69
2023-02-26T14:35:51.512Z,140614.31
2023-02-26T14:40:57.324Z,140594.63
2023-02-26T14:46:02.539Z,140685.53
2023-02-26T14:51:16.265Z,140716.25
2023-02-26T14:56:24.518Z,140749.44
2023-02-26T15:01:46.088Z,140783.84
2023-02-26T15:07:13.391Z,140764.22
2023-02-26T15:12:35.974Z,140763.00
2023-02-26T15:17:48.788Z,140737.19
2023-02-26T15:22:59.176Z,140683.09
2023-02-26T15:28:06.827Z,140635.16
2023-02-26T15:33:29.384Z,140618.00
2023-02-26T15:38:40.727Z,140645.03
2023-02-26T15:43:47.700Z,140625.34
2023-02-26T15:48:51.064Z,140683.09
2023-02-26T15:53:55.383Z,140598.31
2023-02-26T15:59:02.372Z,140592.19
2023-02-26T16:04:09.139Z,140577.41
2023-02-26T16:09:18.916Z,140514.78
2023-02-26T16:14:25.654Z,140476.78
2023-02-26T16:19:33.188Z,140469.41
2023-02-26T16:24:40.622Z,140412.91
2023-02-26T16:29:51.599Z,140399.44
2023-02-26T16:34:55.993Z,140383.47
2023-02-26T16:40:00.190Z,140379.78
2023-02-26T16:45:16.220Z,140342.97
2023-02-26T16:50:20.898Z,140331.97
2023-02-26T16:55:26.401Z,140304.97
2023-02-26T17:00:31.926Z,140323.34
2023-02-26T17:05:36.795Z,140316.00
2023-02-26T17:10:41.054Z,140338.09
2023-02-26T17:15:47.234Z,140329.47
2023-02-26T17:20:50.801Z,140331.97
2023-02-26T17:25:56.415Z,140333.19
2023-02-26T17:31:04.155Z,140319.66
2023-02-26T17:36:07.794Z,140318.44
2023-02-26T17:41:11.994Z,140271.78
2023-02-26T17:46:17.063Z,140236.25
2023-02-26T17:51:20.523Z,140198.28
2023-02-26T17:56:27.019Z,140146.75
2023-02-26T18:01:31.979Z,140178.63
2023-02-26T18:06:38.688Z,140125.91
2023-02-26T18:11:44.353Z,140086.69
2023-02-26T18:16:49.125Z,140071.97
2023-02-26T18:21:52.506Z,140015.59
2023-02-26T18:26:56.030Z,139986.19
2023-02-26T18:32:03.940Z,139962.88
2023-02-26T18:37:07.808Z,139962.88
2023-02-26T18:42:20.305Z,139933.53
2023-02-26T18:47:28.103Z,139907.81
2023-02-26T18:52:34.626Z,139891.91
2023-02-26T18:57:37.925Z,139852.69
2023-02-26T19:42:24.338Z,139831.91
2023-02-26T19:47:27.820Z,139811.06
2023-02-26T19:52:31.877Z,139803.72
2023-02-26T19:57:37.390Z,139770.63
2023-02-26T20:02:43.051Z,139747.41
2023-02-26T20:07:49.176Z,139738.81
2023-02-26T20:12:54.209Z,139737.59
2023-02-26T20:17:58.718Z,139692.38
2023-02-26T20:23:04.161Z,139680.13
2023-02-26T20:28:12.572Z,139648.31
2023-02-26T20:33:25.156Z,139649.53
2023-02-26T20:38:32.372Z,139648.31
2023-02-26T20:43:38.779Z,139614.06
2023-02-26T20:48:44.265Z,139620.16
2023-02-26T20:53:48.155Z,139678.91
2023-02-26T20:58:53.250Z,139688.66
2023-02-26T21:03:57.138Z,139751.09
2023-02-26T21:09:03.076Z,139705.78
2023-02-26T21:14:09.475Z,139705.78
2023-02-26T21:19:14.825Z,139687.44
2023-02-26T21:24:19.738Z,139694.81
2023-02-26T21:29:25.328Z,139700.88
2023-02-26T21:34:34.070Z,139730.25
2023-02-26T21:39:39.222Z,139714.34
2023-02-26T21:44:48.481Z,139718.03
2023-02-26T21:49:52.261Z,139666.69
2023-02-26T21:54:57.250Z,139663.00
2023-02-26T22:00:06.625Z,139656.84
2023-02-26T22:05:16.130Z,139645.88
2023-02-26T22:10:20.039Z,139625.06
2023-02-26T22:15:26.978Z,139620.16
2023-02-26T22:20:31.132Z,139609.16
2023-02-26T22:25:34.708Z,139587.16
2023-02-26T22:30:44.741Z,139563.88
2023-02-26T22:35:48.797Z,139543.09
2023-02-26T22:40:54.105Z,139535.75
2023-02-26T22:45:59.638Z,139543.09
